sensor_id;sensor_type;location;lat;lon;timestamp;temperature;humidity
28524;DHT22;15734;50.904;6.922;2023-01-15T00:01:30;8.00;99.90
28524;DHT22;15734;50.904;6.922;2023-01-15T00:03:56;8.00;99.90
28524;DHT22;15734;50.904;6.922;2023-01-15T00:06:23;8.00;99.90
28524;DHT22;15734;50.904;6.922;2023-01-15T00:08:49;7.90;99.90
28524;DHT22;15734;50.904;6.922;2023-01-15T00:11:14;7.90;99.90
28524;DHT22;15734;50.904;6.922;2023-01-15T00:13:40;7.80;99.90
28524;DHT22;15734;50.904;6.922;2023-01-15T00:16:07;7.70;99.90
28524;DHT22;15734;50.904;6.922;2023-01-15T00:18:32;7.70;99.90
28524;DHT22;15734;50.904;6.922;2023-01-15T00:21:01;7.70;99.90
28524;DHT22;15734;50.904;6.922;2023-01-15T00:23:27;7.60;99.90
28524;DHT22;15734;50.904;6.922;2023-01-15T00:26:12;7.60;99.90
28524;DHT22;15734;50.904;6.922;2023-01-15T00:28:57;7.60;99.90
28524;DHT22;15734;50.904;6.922;2023-01-15T00:31:23;7.50;99.90
28524;DHT22;15734;50.904;6.922;2023-01-15T00:33:48;7.50;99.90
28524;DHT22;15734;50.904;6.922;2023-01-15T00:36:14;7.40;99.90
28524;DHT22;15734;50.904;6.922;2023-01-15T00:38:39;7.30;99.90
28524;DHT22;15734;50.904;6.922;2023-01-15T00:41:05;7.30;99.90
28524;DHT22;15734;50.904;6.922;2023-01-15T00:43:30;7.20;99.90
28524;DHT22;15734;50.904;6.922;2023-01-15T00:45:56;7.20;99.90
28524;DHT22;15734;50.904;6.922;2023-01-15T00:48:21;7.20;99.90
28524;DHT22;15734;50.904;6.922;2023-01-15T00:50:46;7.10;99.90
28524;DHT22;15734;50.904;6.922;2023-01-15T00:53:12;7.10;99.90
28524;DHT22;15734;50.904;6.922;2023-01-15T00:55:37;7.10;99.90
28524;DHT22;15734;50.904;6.922;2023-01-15T00:58:03;7.10;99.90
28524;DHT22;15734;50.904;6.922;2023-01-15T01:00:28;7.10;99.90
28524;DHT22;15734;50.904;6.922;2023-01-15T01:02:55;7.10;99.90
28524;DHT22;15734;50.904;6.922;2023-01-15T01:05:20;7.10;99.90
28524;DHT22;15734;50.904;6.922;2023-01-15T01:07:45;7.10;99.90
28524;DHT22;15734;50.904;6.922;2023-01-15T01:10:11;7.10;99.90
28524;DHT22;15734;50.904;6.922;2023-01-15T01:12:36;7.10;99.90
28524;DHT22;15734;50.904;6.922;2023-01-15T01:15:02;7.10;99.90
28524;DHT22;15734;50.904;6.922;2023-01-15T01:17:27;7.10;99.90
28524;DHT22;15734;50.904;6.922;2023-01-15T01:19:53;7.10;99.90
28524;DHT22;15734;50.904;6.922;2023-01-15T01:22:18;7.10;99.90
28524;DHT22;15734;50.904;6.922;2023-01-15T01:24:44;7.00;99.90
28524;DHT22;15734;50.904;6.922;2023-01-15T01:27:09;7.00;99.90
28524;DHT22;15734;50.904;6.922;2023-01-15T01:29:35;7.00;99.90
28524;DHT22;15734;50.904;6.922;2023-01-15T01:32:00;7.00;99.90
28524;DHT22;15734;50.904;6.922;2023-01-15T01:34:26;7.00;99.90
28524;DHT22;15734;50.904;6.922;2023-01-15T01:36:51;7.00;99.90
28524;DHT22;15734;50.904;6.922;2023-01-15T01:39:17;6.90;99.90
28524;DHT22;15734;50.904;6.922;2023-01-15T01:41:44;7.00;99.90
28524;DHT22;15734;50.904;6.922;2023-01-15T01:46:53;7.00;99.90
28524;DHT22;15734;50.904;6.922;2023-01-15T01:49:19;7.10;99.90
28524;DHT22;15734;50.904;6.922;2023-01-15T01:51:46;7.10;99.90
28524;DHT22;15734;50.904;6.922;2023-01-15T01:54:13;7.10;99.90
28524;DHT22;15734;50.904;6.922;2023-01-15T01:56:40;7.20;99.90
28524;DHT22;15734;50.904;6.922;2023-01-15T01:59:06;7.20;99.90
28524;DHT22;15734;50.904;6.922;2023-01-15T02:01:32;7.20;99.90
28524;DHT22;15734;50.904;6.922;2023-01-15T02:03:58;7.20;99.90
28524;DHT22;15734;50.904;6.922;2023-01-15T02:06:24;7.20;99.90
28524;DHT22;15734;50.904;6.922;2023-01-15T02:08:49;7.20;99.90
28524;DHT22;15734;50.904;6.922;2023-01-15T02:11:16;7.20;99.90
28524;DHT22;15734;50.904;6.922;2023-01-15T02:13:45;7.30;99.90
28524;DHT22;15734;50.904;6.922;2023-01-15T02:16:16;7.30;99.90
28524;DHT22;15734;50.904;6.922;2023-01-15T02:19:31;7.30;99.90
28524;DHT22;15734;50.904;6.922;2023-01-15T02:26:26;7.20;99.90
28524;DHT22;15734;50.904;6.922;2023-01-15T02:28:55;7.20;99.90
28524;DHT22;15734;50.904;6.922;2023-01-15T02:31:26;7.10;99.90
28524;DHT22;15734;50.904;6.922;2023-01-15T02:34:04;7.20;99.90
28524;DHT22;15734;50.904;6.922;2023-01-15T02:36:32;7.10;99.90
28524;DHT22;15734;50.904;6.922;2023-01-15T02:38:58;7.20;99.90
28524;DHT22;15734;50.904;6.922;2023-01-15T02:41:27;7.10;99.90
28524;DHT22;15734;50.904;6.922;2023-01-15T02:43:55;7.10;99.90
28524;DHT22;15734;50.904;6.922;2023-01-15T02:46:23;7.10;99.90
28524;DHT22;15734;50.904;6.922;2023-01-15T02:48:51;7.10;99.90
28524;DHT22;15734;50.904;6.922;2023-01-15T02:51:19;7.00;99.90
28524;DHT22;15734;50.904;6.922;2023-01-15T02:53:47;7.10;99.90
28524;DHT22;15734;50.904;6.922;2023-01-15T02:56:17;7.10;99.90
28524;DHT22;15734;50.904;6.922;2023-01-15T02:58:44;7.10;99.90
28524;DHT22;15734;50.904;6.922;2023-01-15T03:01:17;7.10;99.90
28524;DHT22;15734;50.904;6.922;2023-01-15T03:03:45;7.00;99.90
28524;DHT22;15734;50.904;6.922;2023-01-15T03:06:20;7.10;99.90
28524;DHT22;15734;50.904;6.922;2023-01-15T03:08:49;7.20;99.90
28524;DHT22;15734;50.904;6.922;2023-01-15T03:11:15;7.10;99.90
28524;DHT22;15734;50.904;6.922;2023-01-15T03:16:12;7.10;99.90
28524;DHT22;15734;50.904;6.922;2023-01-15T03:19:03;7.20;99.90
28524;DHT22;15734;50.904;6.922;2023-01-15T03:21:33;7.20;99.90
28524;DHT22;15734;50.904;6.922;2023-01-15T03:24:01;7.20;99.90
28524;DHT22;15734;50.904;6.922;2023-01-15T03:26:29;7.30;99.90
28524;DHT22;15734;50.904;6.922;2023-01-15T03:28:54;7.40;99.90
28524;DHT22;15734;50.904;6.922;2023-01-15T03:31:20;7.40;99.90
28524;DHT22;15734;50.904;6.922;2023-01-15T03:33:45;7.50;99.90
28524;DHT22;15734;50.904;6.922;2023-01-15T03:36:11;7.50;99.90
28524;DHT22;15734;50.904;6.922;2023-01-15T03:38:37;7.60;99.90
28524;DHT22;15734;50.904;6.922;2023-01-15T03:49:31;7.50;99.90
28524;DHT22;15734;50.904;6.922;2023-01-15T03:51:51;7.50;99.90
28524;DHT22;15734;50.904;6.922;2023-01-15T03:54:23;7.50;99.90
28524;DHT22;15734;50.904;6.922;2023-01-15T03:56:57;7.50;99.90
28524;DHT22;15734;50.904;6.922;2023-01-15T03:59:36;7.50;99.90
28524;DHT22;15734;50.904;6.922;2023-01-15T04:02:04;7.50;99.90
28524;DHT22;15734;50.904;6.922;2023-01-15T04:04:31;7.50;99.90
28524;DHT22;15734;50.904;6.922;2023-01-15T04:06:57;7.50;99.90
28524;DHT22;15734;50.904;6.922;2023-01-15T04:09:24;7.50;99.90
28524;DHT22;15734;50.904;6.922;2023-01-15T04:11:49;7.50;99.90
28524;DHT22;15734;50.904;6.922;2023-01-15T04:14:15;7.40;99.90
28524;DHT22;15734;50.904;6.922;2023-01-15T04:16:40;7.40;99.90
28524;DHT22;15734;50.904;6.922;2023-01-15T04:19:06;7.40;99.90
28524;DHT22;15734;50.904;6.922;2023-01-15T04:21:31;7.40;99.90
28524;DHT22;15734;50.904;6.922;2023-01-15T04:23:56;7.50;99.90
28524;DHT22;15734;50.904;6.922;2023-01-15T04:26:22;7.40;99.90
28524;DHT22;15734;50.904;6.922;2023-01-15T04:28:47;7.40;99.90
28524;DHT22;15734;50.904;6.922;2023-01-15T04:31:13;7.40;99.90
28524;DHT22;15734;50.904;6.922;2023-01-15T04:33:39;7.40;99.90
28524;DHT22;15734;50.904;6.922;2023-01-15T04:36:04;7.50;99.90
28524;DHT22;15734;50.904;6.922;2023-01-15T04:38:30;7.50;99.90
28524;DHT22;15734;50.904;6.922;2023-01-15T04:40:59;7.40;99.90
28524;DHT22;15734;50.904;6.922;2023-01-15T04:43:51;7.40;99.90
28524;DHT22;15734;50.904;6.922;2023-01-15T04:46:32;7.40;99.90
28524;DHT22;15734;50.904;6.922;2023-01-15T04:48:58;7.40;99.90
28524;DHT22;15734;50.904;6.922;2023-01-15T04:51:23;7.40;99.90
28524;DHT22;15734;50.904;6.922;2023-01-15T04:53:49;7.40;99.90
28524;DHT22;15734;50.904;6.922;2023-01-15T04:56:14;7.30;99.90
28524;DHT22;15734;50.904;6.922;2023-01-15T04:58:40;7.30;99.90
28524;DHT22;15734;50.904;6.922;2023-01-15T05:01:10;7.40;99.90
28524;DHT22;15734;50.904;6.922;2023-01-15T05:03:35;7.40;99.90
28524;DHT22;15734;50.904;6.922;2023-01-15T05:06:01;7.40;99.90
28524;DHT22;15734;50.904;6.922;2023-01-15T05:08:27;7.40;99.90
28524;DHT22;15734;50.904;6.922;2023-01-15T05:10:52;7.40;99.90
28524;DHT22;15734;50.904;6.922;2023-01-15T05:13:18;7.30;99.90
28524;DHT22;15734;50.904;6.922;2023-01-15T05:15:43;7.30;99.90
28524;DHT22;15734;50.904;6.922;2023-01-15T05:18:11;7.30;99.90
28524;DHT22;15734;50.904;6.922;2023-01-15T05:20:42;7.40;99.90
28524;DHT22;15734;50.904;6.922;2023-01-15T05:23:07;7.40;99.90
28524;DHT22;15734;50.904;6.922;2023-01-15T05:25:35;7.50;99.90
28524;DHT22;15734;50.904;6.922;2023-01-15T05:28:00;7.40;99.90
28524;DHT22;15734;50.904;6.922;2023-01-15T05:30:26;7.60;99.90
28524;DHT22;15734;50.904;6.922;2023-01-15T05:32:51;7.50;99.90
28524;DHT22;15734;50.904;6.922;2023-01-15T05:35:17;7.50;99.90
28524;DHT22;15734;50.904;6.922;2023-01-15T05:37:42;7.50;99.90
28524;DHT22;15734;50.904;6.922;2023-01-15T05:40:08;7.50;99.90
28524;DHT22;15734;50.904;6.922;2023-01-15T05:42:33;7.50;99.90
28524;DHT22;15734;50.904;6.922;2023-01-15T05:44:59;7.50;99.90
28524;DHT22;15734;50.904;6.922;2023-01-15T05:47:24;7.60;99.90
28524;DHT22;15734;50.904;6.922;2023-01-15T05:49:50;7.60;99.90
28524;DHT22;15734;50.904;6.922;2023-01-15T05:52:15;7.60;99.90
28524;DHT22;15734;50.904;6.922;2023-01-15T05:54:41;7.60;99.90
28524;DHT22;15734;50.904;6.922;2023-01-15T05:57:08;7.50;99.90
28524;DHT22;15734;50.904;6.922;2023-01-15T05:59:34;7.60;99.90
28524;DHT22;15734;50.904;6.922;2023-01-15T06:02:00;7.60;99.90
28524;DHT22;15734;50.904;6.922;2023-01-15T06:04:25;7.50;99.90
28524;DHT22;15734;50.904;6.922;2023-01-15T06:06:51;7.50;99.90
28524;DHT22;15734;50.904;6.922;2023-01-15T06:09:17;7.50;99.90
28524;DHT22;15734;50.904;6.922;2023-01-15T06:11:43;7.40;99.90
28524;DHT22;15734;50.904;6.922;2023-01-15T06:14:09;7.40;99.90
28524;DHT22;15734;50.904;6.922;2023-01-15T06:16:34;7.30;99.90
28524;DHT22;15734;50.904;6.922;2023-01-15T06:19:01;7.30;99.90
28524;DHT22;15734;50.904;6.922;2023-01-15T06:21:28;7.30;99.90
28524;DHT22;15734;50.904;6.922;2023-01-15T06:23:54;7.30;99.90
28524;DHT22;15734;50.904;6.922;2023-01-15T06:26:19;7.30;99.90
28524;DHT22;15734;50.904;6.922;2023-01-15T06:28:45;7.20;99.90
28524;DHT22;15734;50.904;6.922;2023-01-15T06:31:11;7.20;99.90
28524;DHT22;15734;50.904;6.922;2023-01-15T06:33:38;7.20;99.90
28524;DHT22;15734;50.904;6.922;2023-01-15T06:36:08;7.20;99.90
28524;DHT22;15734;50.904;6.922;2023-01-15T06:38:33;7.20;99.90
28524;DHT22;15734;50.904;6.922;2023-01-15T06:41:02;7.10;99.90
28524;DHT22;15734;50.904;6.922;2023-01-15T06:43:28;7.20;99.90
28524;DHT22;15734;50.904;6.922;2023-01-15T06:46:12;7.10;99.90
28524;DHT22;15734;50.904;6.922;2023-01-15T06:48:57;7.10;99.90
28524;DHT22;15734;50.904;6.922;2023-01-15T06:51:22;7.00;99.90
28524;DHT22;15734;50.904;6.922;2023-01-15T06:53:48;7.10;99.90
28524;DHT22;15734;50.904;6.922;2023-01-15T06:56:13;7.00;99.90
28524;DHT22;15734;50.904;6.922;2023-01-15T06:58:39;6.90;99.90
28524;DHT22;15734;50.904;6.922;2023-01-15T07:01:07;6.90;99.90
28524;DHT22;15734;50.904;6.922;2023-01-15T07:03:32;6.80;99.90
28524;DHT22;15734;50.904;6.922;2023-01-15T07:05:58;6.70;99.90
28524;DHT22;15734;50.904;6.922;2023-01-15T07:08:23;6.60;99.90
28524;DHT22;15734;50.904;6.922;2023-01-15T07:10:48;6.50;99.90
28524;DHT22;15734;50.904;6.922;2023-01-15T07:13:14;6.40;99.90
28524;DHT22;15734;50.904;6.922;2023-01-15T07:15:39;6.40;99.90
28524;DHT22;15734;50.904;6.922;2023-01-15T07:18:05;6.30;99.90
28524;DHT22;15734;50.904;6.922;2023-01-15T07:20:31;6.30;99.90
28524;DHT22;15734;50.904;6.922;2023-01-15T07:22:56;6.30;99.90
28524;DHT22;15734;50.904;6.922;2023-01-15T07:25:21;6.30;99.90
28524;DHT22;15734;50.904;6.922;2023-01-15T07:27:47;6.30;99.90
28524;DHT22;15734;50.904;6.922;2023-01-15T07:30:13;6.30;99.90
28524;DHT22;15734;50.904;6.922;2023-01-15T07:32:39;6.30;99.90
28524;DHT22;15734;50.904;6.922;2023-01-15T07:35:04;6.30;99.90
28524;DHT22;15734;50.904;6.922;2023-01-15T07:37:30;6.40;99.90
28524;DHT22;15734;50.904;6.922;2023-01-15T07:39:55;6.40;99.90
28524;DHT22;15734;50.904;6.922;2023-01-15T07:42:21;6.40;99.90
28524;DHT22;15734;50.904;6.922;2023-01-15T07:45:07;6.40;99.90
28524;DHT22;15734;50.904;6.922;2023-01-15T07:47:52;6.40;99.90
28524;DHT22;15734;50.904;6.922;2023-01-15T07:50:36;6.50;99.90
28524;DHT22;15734;50.904;6.922;2023-01-15T07:53:01;6.40;99.90
28524;DHT22;15734;50.904;6.922;2023-01-15T07:55:27;6.40;99.90
28524;DHT22;15734;50.904;6.922;2023-01-15T07:57:52;6.40;99.90
28524;DHT22;15734;50.904;6.922;2023-01-15T08:00:19;6.40;99.90
28524;DHT22;15734;50.904;6.922;2023-01-15T08:02:45;6.40;99.90
28524;DHT22;15734;50.904;6.922;2023-01-15T08:05:14;6.50;99.90
28524;DHT22;15734;50.904;6.922;2023-01-15T08:07:40;6.50;99.90
28524;DHT22;15734;50.904;6.922;2023-01-15T08:10:06;6.60;99.90
28524;DHT22;15734;50.904;6.922;2023-01-15T08:12:32;6.30;99.90
28524;DHT22;15734;50.904;6.922;2023-01-15T08:15:16;6.20;99.90
28524;DHT22;15734;50.904;6.922;2023-01-15T08:17:45;5.80;99.90
28524;DHT22;15734;50.904;6.922;2023-01-15T08:20:15;5.70;99.90
28524;DHT22;15734;50.904;6.922;2023-01-15T08:22:41;5.60;99.90
28524;DHT22;15734;50.904;6.922;2023-01-15T08:25:09;5.70;99.90
28524;DHT22;15734;50.904;6.922;2023-01-15T08:27:35;5.70;99.90
28524;DHT22;15734;50.904;6.922;2023-01-15T08:30:01;5.70;99.90
28524;DHT22;15734;50.904;6.922;2023-01-15T08:32:26;5.70;99.90
28524;DHT22;15734;50.904;6.922;2023-01-15T08:34:51;5.60;99.90
28524;DHT22;15734;50.904;6.922;2023-01-15T08:37:17;5.50;99.90
28524;DHT22;15734;50.904;6.922;2023-01-15T08:39:42;5.50;99.90
28524;DHT22;15734;50.904;6.922;2023-01-15T08:42:08;5.40;99.90
28524;DHT22;15734;50.904;6.922;2023-01-15T08:44:33;5.40;99.90
28524;DHT22;15734;50.904;6.922;2023-01-15T08:46:59;5.40;99.90
28524;DHT22;15734;50.904;6.922;2023-01-15T08:49:24;5.40;99.90
28524;DHT22;15734;50.904;6.922;2023-01-15T08:51:50;5.30;99.90
28524;DHT22;15734;50.904;6.922;2023-01-15T08:54:17;5.30;99.90
28524;DHT22;15734;50.904;6.922;2023-01-15T08:56:43;5.30;99.90
28524;DHT22;15734;50.904;6.922;2023-01-15T08:59:09;5.40;99.90
28524;DHT22;15734;50.904;6.922;2023-01-15T09:01:34;5.40;99.90
28524;DHT22;15734;50.904;6.922;2023-01-15T09:04:00;5.40;99.90
28524;DHT22;15734;50.904;6.922;2023-01-15T09:06:26;5.40;99.90
28524;DHT22;15734;50.904;6.922;2023-01-15T09:08:51;5.40;99.90
28524;DHT22;15734;50.904;6.922;2023-01-15T09:11:17;5.40;99.90
28524;DHT22;15734;50.904;6.922;2023-01-15T09:13:42;5.50;99.90
28524;DHT22;15734;50.904;6.922;2023-01-15T09:16:08;5.60;99.90
28524;DHT22;15734;50.904;6.922;2023-01-15T09:18:39;5.70;99.90
28524;DHT22;15734;50.904;6.922;2023-01-15T09:21:05;5.80;99.90
28524;DHT22;15734;50.904;6.922;2023-01-15T09:23:31;5.80;99.90
28524;DHT22;15734;50.904;6.922;2023-01-15T09:25:57;5.90;99.90
28524;DHT22;15734;50.904;6.922;2023-01-15T09:28:23;6.00;99.90
28524;DHT22;15734;50.904;6.922;2023-01-15T09:30:49;6.00;99.90
28524;DHT22;15734;50.904;6.922;2023-01-15T09:33:14;6.10;99.90
28524;DHT22;15734;50.904;6.922;2023-01-15T09:35:41;6.20;99.90
28524;DHT22;15734;50.904;6.922;2023-01-15T09:38:06;6.20;99.90
28524;DHT22;15734;50.904;6.922;2023-01-15T09:43:00;6.20;99.90
28524;DHT22;15734;50.904;6.922;2023-01-15T09:45:29;6.20;99.90
28524;DHT22;15734;50.904;6.922;2023-01-15T09:50:41;6.40;99.90
28524;DHT22;15734;50.904;6.922;2023-01-15T09:55:52;6.80;99.90
28524;DHT22;15734;50.904;6.922;2023-01-15T09:58:20;6.90;99.90
28524;DHT22;15734;50.904;6.922;2023-01-15T10:00:47;6.90;99.90
28524;DHT22;15734;50.904;6.922;2023-01-15T10:05:43;7.00;99.90
28524;DHT22;15734;50.904;6.922;2023-01-15T10:08:19;7.00;99.90
28524;DHT22;15734;50.904;6.922;2023-01-15T10:10:49;7.10;99.90
28524;DHT22;15734;50.904;6.922;2023-01-15T10:13:26;7.20;99.90
28524;DHT22;15734;50.904;6.922;2023-01-15T10:15:54;7.30;99.90
28524;DHT22;15734;50.904;6.922;2023-01-15T10:18:20;7.40;99.90
28524;DHT22;15734;50.904;6.922;2023-01-15T10:23:36;7.50;99.90
28524;DHT22;15734;50.904;6.922;2023-01-15T10:26:14;7.60;99.90
28524;DHT22;15734;50.904;6.922;2023-01-15T10:31:11;7.70;99.90
28524;DHT22;15734;50.904;6.922;2023-01-15T10:34:00;7.90;99.90
28524;DHT22;15734;50.904;6.922;2023-01-15T10:36:30;8.00;99.90
28524;DHT22;15734;50.904;6.922;2023-01-15T10:46:59;8.10;99.90
28524;DHT22;15734;50.904;6.922;2023-01-15T10:49:28;8.20;99.90
28524;DHT22;15734;50.904;6.922;2023-01-15T10:54:24;8.20;99.90
28524;DHT22;15734;50.904;6.922;2023-01-15T10:59:41;8.20;99.90
28524;DHT22;15734;50.904;6.922;2023-01-15T11:02:55;8.20;99.90
28524;DHT22;15734;50.904;6.922;2023-01-15T11:04:54;8.10;99.90
28524;DHT22;15734;50.904;6.922;2023-01-15T11:07:27;8.10;99.90
28524;DHT22;15734;50.904;6.922;2023-01-15T11:09:55;8.20;99.90
28524;DHT22;15734;50.904;6.922;2023-01-15T11:12:22;8.20;99.90
28524;DHT22;15734;50.904;6.922;2023-01-15T11:14:48;8.20;99.90
28524;DHT22;15734;50.904;6.922;2023-01-15T11:17:34;8.40;99.90
28524;DHT22;15734;50.904;6.922;2023-01-15T11:20:32;8.40;99.90
28524;DHT22;15734;50.904;6.922;2023-01-15T11:23:11;8.40;99.90
28524;DHT22;15734;50.904;6.922;2023-01-15T11:25:38;8.50;99.90
28524;DHT22;15734;50.904;6.922;2023-01-15T11:28:08;8.50;99.90
28524;DHT22;15734;50.904;6.922;2023-01-15T11:30:37;8.70;99.90
28524;DHT22;15734;50.904;6.922;2023-01-15T11:33:03;8.70;99.90
28524;DHT22;15734;50.904;6.922;2023-01-15T11:35:29;8.60;99.90
28524;DHT22;15734;50.904;6.922;2023-01-15T11:38:04;8.50;99.90
28524;DHT22;15734;50.904;6.922;2023-01-15T11:40:30;8.40;99.90
28524;DHT22;15734;50.904;6.922;2023-01-15T11:42:56;8.50;99.90
28524;DHT22;15734;50.904;6.922;2023-01-15T11:45:50;8.60;99.90
28524;DHT22;15734;50.904;6.922;2023-01-15T11:48:44;8.90;99.90
28524;DHT22;15734;50.904;6.922;2023-01-15T11:51:28;8.70;99.90
28524;DHT22;15734;50.904;6.922;2023-01-15T11:53:58;8.90;99.90
28524;DHT22;15734;50.904;6.922;2023-01-15T11:56:25;8.90;99.90
28524;DHT22;15734;50.904;6.922;2023-01-15T11:58:55;8.50;99.90
28524;DHT22;15734;50.904;6.922;2023-01-15T12:01:28;8.40;99.90
28524;DHT22;15734;50.904;6.922;2023-01-15T12:03:58;8.30;99.90
28524;DHT22;15734;50.904;6.922;2023-01-15T12:06:24;8.30;99.90
28524;DHT22;15734;50.904;6.922;2023-01-15T12:08:51;8.30;99.90
28524;DHT22;15734;50.904;6.922;2023-01-15T12:16:44;8.30;99.90
28524;DHT22;15734;50.904;6.922;2023-01-15T12:24:35;8.10;99.90
28524;DHT22;15734;50.904;6.922;2023-01-15T12:27:08;8.20;99.90
28524;DHT22;15734;50.904;6.922;2023-01-15T12:29:39;8.30;99.90
28524;DHT22;15734;50.904;6.922;2023-01-15T12:32:07;8.50;99.90
28524;DHT22;15734;50.904;6.922;2023-01-15T12:34:38;8.60;99.90
28524;DHT22;15734;50.904;6.922;2023-01-15T12:37:08;8.50;99.90
28524;DHT22;15734;50.904;6.922;2023-01-15T12:39:42;8.30;99.90
28524;DHT22;15734;50.904;6.922;2023-01-15T12:42:10;8.20;99.90
28524;DHT22;15734;50.904;6.922;2023-01-15T12:44:57;8.20;99.90
28524;DHT22;15734;50.904;6.922;2023-01-15T12:50:27;8.40;99.90
28524;DHT22;15734;50.904;6.922;2023-01-15T12:53:16;8.60;99.90
28524;DHT22;15734;50.904;6.922;2023-01-15T12:55:43;8.90;99.90
28524;DHT22;15734;50.904;6.922;2023-01-15T12:58:12;9.00;99.90
28524;DHT22;15734;50.904;6.922;2023-01-15T13:00:41;9.20;99.90
28524;DHT22;15734;50.904;6.922;2023-01-15T13:05:55;9.20;99.90
28524;DHT22;15734;50.904;6.922;2023-01-15T13:08:29;9.20;99.90
28524;DHT22;15734;50.904;6.922;2023-01-15T13:10:56;9.10;99.90
28524;DHT22;15734;50.904;6.922;2023-01-15T13:13:22;9.10;99.90
28524;DHT22;15734;50.904;6.922;2023-01-15T13:18:21;8.80;99.90
28524;DHT22;15734;50.904;6.922;2023-01-15T13:20:49;8.70;99.90
28524;DHT22;15734;50.904;6.922;2023-01-15T13:23:19;8.80;99.90
28524;DHT22;15734;50.904;6.922;2023-01-15T13:33:53;9.00;99.90
28524;DHT22;15734;50.904;6.922;2023-01-15T13:36:31;9.10;99.90
28524;DHT22;15734;50.904;6.922;2023-01-15T13:38:59;9.20;99.90
28524;DHT22;15734;50.904;6.922;2023-01-15T13:41:25;9.10;99.90
28524;DHT22;15734;50.904;6.922;2023-01-15T13:44:17;9.20;99.90
28524;DHT22;15734;50.904;6.922;2023-01-15T13:46:45;9.20;99.90
28524;DHT22;15734;50.904;6.922;2023-01-15T13:49:16;9.20;99.90
28524;DHT22;15734;50.904;6.922;2023-01-15T13:51:45;9.30;99.90
28524;DHT22;15734;50.904;6.922;2023-01-15T13:54:14;9.40;99.90
28524;DHT22;15734;50.904;6.922;2023-01-15T13:56:42;9.30;99.90
28524;DHT22;15734;50.904;6.922;2023-01-15T14:01:53;9.10;99.90
28524;DHT22;15734;50.904;6.922;2023-01-15T14:04:30;9.00;99.90
28524;DHT22;15734;50.904;6.922;2023-01-15T14:06:56;9.00;99.90
28524;DHT22;15734;50.904;6.922;2023-01-15T14:21:56;8.60;99.90
28524;DHT22;15734;50.904;6.922;2023-01-15T14:34:40;8.50;99.90
28524;DHT22;15734;50.904;6.922;2023-01-15T14:37:16;8.40;99.90
28524;DHT22;15734;50.904;6.922;2023-01-15T14:42:38;8.40;99.90
28524;DHT22;15734;50.904;6.922;2023-01-15T14:47:55;8.30;99.90
28524;DHT22;15734;50.904;6.922;2023-01-15T14:53:02;8.30;99.90
28524;DHT22;15734;50.904;6.922;2023-01-15T14:55:29;8.30;99.90
28524;DHT22;15734;50.904;6.922;2023-01-15T14:57:57;8.30;99.90
28524;DHT22;15734;50.904;6.922;2023-01-15T15:00:28;8.30;99.90
28524;DHT22;15734;50.904;6.922;2023-01-15T15:02:55;8.30;99.90
28524;DHT22;15734;50.904;6.922;2023-01-15T15:05:21;8.30;99.90
28524;DHT22;15734;50.904;6.922;2023-01-15T15:07:48;8.30;99.90
28524;DHT22;15734;50.904;6.922;2023-01-15T15:10:32;8.30;99.90
28524;DHT22;15734;50.904;6.922;2023-01-15T15:18:28;8.20;99.90
28524;DHT22;15734;50.904;6.922;2023-01-15T15:21:06;8.20;99.90
28524;DHT22;15734;50.904;6.922;2023-01-15T15:26:24;8.20;99.90
28524;DHT22;15734;50.904;6.922;2023-01-15T15:31:28;8.10;99.90
28524;DHT22;15734;50.904;6.922;2023-01-15T15:33:56;8.10;99.90
28524;DHT22;15734;50.904;6.922;2023-01-15T15:36:32;8.00;99.90
28524;DHT22;15734;50.904;6.922;2023-01-15T15:39:03;8.00;99.90
28524;DHT22;15734;50.904;6.922;2023-01-15T15:41:34;7.90;99.90
28524;DHT22;15734;50.904;6.922;2023-01-15T15:44:39;7.90;99.90
28524;DHT22;15734;50.904;6.922;2023-01-15T15:47:26;7.90;99.90
28524;DHT22;15734;50.904;6.922;2023-01-15T15:52:47;8.00;99.90
28524;DHT22;15734;50.904;6.922;2023-01-15T15:55:14;7.90;99.90
28524;DHT22;15734;50.904;6.922;2023-01-15T15:57:40;8.00;99.90
28524;DHT22;15734;50.904;6.922;2023-01-15T16:00:11;8.00;99.90
28524;DHT22;15734;50.904;6.922;2023-01-15T16:02:40;8.30;99.90
28524;DHT22;15734;50.904;6.922;2023-01-15T16:05:20;8.10;99.90
28524;DHT22;15734;50.904;6.922;2023-01-15T16:07:46;8.10;99.90
28524;DHT22;15734;50.904;6.922;2023-01-15T16:10:13;8.00;99.90
28524;DHT22;15734;50.904;6.922;2023-01-15T16:12:46;8.00;99.90
28524;DHT22;15734;50.904;6.922;2023-01-15T16:15:13;8.00;99.90
28524;DHT22;15734;50.904;6.922;2023-01-15T16:17:39;7.90;99.90
28524;DHT22;15734;50.904;6.922;2023-01-15T16:20:10;8.00;99.90
28524;DHT22;15734;50.904;6.922;2023-01-15T16:22:37;7.90;99.90
28524;DHT22;15734;50.904;6.922;2023-01-15T16:25:19;7.90;99.90
28524;DHT22;15734;50.904;6.922;2023-01-15T16:27:45;7.90;99.90
28524;DHT22;15734;50.904;6.922;2023-01-15T16:30:13;7.90;99.90
28524;DHT22;15734;50.904;6.922;2023-01-15T16:32:39;7.90;99.90
28524;DHT22;15734;50.904;6.922;2023-01-15T16:35:12;7.80;99.90
28524;DHT22;15734;50.904;6.922;2023-01-15T16:37:39;7.80;99.90
28524;DHT22;15734;50.904;6.922;2023-01-15T16:40:05;7.80;99.90
28524;DHT22;15734;50.904;6.922;2023-01-15T16:42:33;7.80;99.90
28524;DHT22;15734;50.904;6.922;2023-01-15T16:45:01;7.80;99.90
28524;DHT22;15734;50.904;6.922;2023-01-15T16:47:29;7.80;99.90
28524;DHT22;15734;50.904;6.922;2023-01-15T16:50:22;7.80;99.90
28524;DHT22;15734;50.904;6.922;2023-01-15T16:52:48;7.80;99.90
28524;DHT22;15734;50.904;6.922;2023-01-15T16:55:33;7.80;99.90
28524;DHT22;15734;50.904;6.922;2023-01-15T17:00:41;7.80;99.90
28524;DHT22;15734;50.904;6.922;2023-01-15T17:03:28;7.80;99.90
28524;DHT22;15734;50.904;6.922;2023-01-15T17:05:55;7.80;99.90
28524;DHT22;15734;50.904;6.922;2023-01-15T17:08:22;7.80;99.90
28524;DHT22;15734;50.904;6.922;2023-01-15T17:10:52;7.70;99.90
28524;DHT22;15734;50.904;6.922;2023-01-15T17:13:18;7.70;99.90
28524;DHT22;15734;50.904;6.922;2023-01-15T17:15:44;7.70;99.90
28524;DHT22;15734;50.904;6.922;2023-01-15T17:18:20;7.70;99.90
28524;DHT22;15734;50.904;6.922;2023-01-15T17:20:48;7.70;99.90
28524;DHT22;15734;50.904;6.922;2023-01-15T17:23:14;7.70;99.90
28524;DHT22;15734;50.904;6.922;2023-01-15T17:25:39;7.70;99.90
28524;DHT22;15734;50.904;6.922;2023-01-15T17:28:05;7.70;99.90
28524;DHT22;15734;50.904;6.922;2023-01-15T17:30:32;7.70;99.90
28524;DHT22;15734;50.904;6.922;2023-01-15T17:32:59;7.70;99.90
28524;DHT22;15734;50.904;6.922;2023-01-15T17:37:50;7.70;99.90
28524;DHT22;15734;50.904;6.922;2023-01-15T17:40:16;7.80;99.90
28524;DHT22;15734;50.904;6.922;2023-01-15T17:42:41;7.80;99.90
28524;DHT22;15734;50.904;6.922;2023-01-15T17:48:02;7.90;99.90
28524;DHT22;15734;50.904;6.922;2023-01-15T17:50:28;7.80;99.90
28524;DHT22;15734;50.904;6.922;2023-01-15T17:52:53;7.80;99.90
28524;DHT22;15734;50.904;6.922;2023-01-15T17:55:20;7.80;99.90
28524;DHT22;15734;50.904;6.922;2023-01-15T17:58:05;7.80;99.90
28524;DHT22;15734;50.904;6.922;2023-01-15T18:00:49;7.70;99.90
28524;DHT22;15734;50.904;6.922;2023-01-15T18:03:35;7.70;99.90
28524;DHT22;15734;50.904;6.922;2023-01-15T18:06:21;7.70;99.90